Time;durP1;ratioP1;P1;durP2;ratioP2;P2;SDS_P1;SDS_P2;PMS_P1;PMS_P2;Temp;Humidity;BMP_temperature;BMP_pressure;BME280_temperature;BME280_humidity;BME280_pressure;Samples;Min_cycle;Max_cycle;Signal;HPM_P1;HPM_P2
2021/12/10 00:01:52;;;;;;;3.85;2.60;;;23.00;37.40;;;;;;5004584;28;20038;-46
2021/12/10 00:04:21;;;;;;;3.90;2.65;;;23.00;36.80;;;;;;5022833;28;20060;-46
2021/12/10 00:06:54;;;;;;;3.80;2.60;;;22.90;36.80;;;;;;5024345;28;20052;-46
2021/12/10 00:09:28;;;;;;;3.75;2.47;;;23.00;36.80;;;;;;5022855;28;20041;-45
2021/12/10 00:12:23;;;;;;;3.38;2.30;;;22.90;36.80;;;;;;5027482;28;20036;-45
2021/12/10 00:14:49;;;;;;;4.03;2.65;;;22.90;36.80;;;;;;5028103;28;20032;-45
2021/12/10 00:17:16;;;;;;;3.40;2.25;;;22.90;36.90;;;;;;5025332;28;20498;-46
2021/12/10 00:19:48;;;;;;;3.55;2.35;;;22.90;36.90;;;;;;5019837;28;20688;-46
2021/12/10 00:22:33;;;;;;;3.47;2.17;;;22.80;36.80;;;;;;5026849;28;20026;-46
2021/12/10 00:24:59;;;;;;;4.22;2.60;;;22.80;36.90;;;;;;5009920;28;20025;-45
2021/12/10 00:27:31;;;;;;;3.53;2.42;;;22.80;36.90;;;;;;5028199;28;20024;-46
2021/12/10 00:30:06;;;;;;;3.17;2.20;;;22.80;37.00;;;;;;5008054;28;20033;-46
2021/12/10 00:32:38;;;;;;;3.28;1.90;;;22.80;37.10;;;;;;5011901;28;20053;-46
2021/12/10 00:35:16;;;;;;;2.90;1.93;;;22.80;37.00;;;;;;5026783;28;20710;-46
2021/12/10 00:37:42;;;;;;;3.40;2.10;;;22.80;37.00;;;;;;5027767;28;20026;-46
2021/12/10 00:40:11;;;;;;;2.78;1.95;;;22.80;37.00;;;;;;5027573;28;20029;-45
2021/12/10 00:42:37;;;;;;;3.25;2.05;;;22.70;37.00;;;;;;5026008;28;20022;-46
2021/12/10 00:45:06;;;;;;;3.10;2.03;;;22.70;37.00;;;;;;5027898;28;20052;-46
2021/12/10 00:47:32;;;;;;;3.30;2.17;;;22.70;36.90;;;;;;5025632;28;20677;-46
2021/12/10 00:49:59;;;;;;;3.45;1.88;;;22.70;37.00;;;;;;5026284;28;20029;-47
2021/12/10 00:52:25;;;;;;;3.38;2.20;;;22.70;37.00;;;;;;5026267;28;20061;-45
2021/12/10 00:54:52;;;;;;;2.90;2.00;;;22.70;37.60;;;;;;5027876;28;20040;-46
2021/12/10 00:57:18;;;;;;;2.97;1.80;;;22.70;37.00;;;;;;5024490;28;20029;-45
2021/12/10 00:59:46;;;;;;;4.20;2.20;;;22.60;37.00;;;;;;5027189;28;20049;-46
2021/12/10 01:02:15;;;;;;;3.50;1.80;;;22.70;37.00;;;;;;5026853;28;20033;-46
2021/12/10 01:04:44;;;;;;;3.53;1.83;;;22.60;36.90;;;;;;5027527;28;20101;-46
2021/12/10 01:07:14;;;;;;;3.67;1.90;;;22.60;36.90;;;;;;5027664;28;20067;-46
2021/12/10 01:09:43;;;;;;;2.92;1.73;;;22.60;37.00;;;;;;5026006;28;20100;-46
2021/12/10 01:12:18;;;;;;;2.80;1.70;;;22.60;37.00;;;;;;5027114;28;20039;-46
2021/12/10 01:28:49;;;;;;;2.70;1.80;;;22.50;37.00;;;;;;5026833;28;20601;-46
2021/12/10 01:31:15;;;;;;;2.38;1.58;;;22.60;37.00;;;;;;5026889;28;20061;-47
2021/12/10 01:33:42;;;;;;;3.05;1.58;;;22.50;37.00;;;;;;5014342;28;20050;-47
2021/12/10 01:36:08;;;;;;;2.45;1.45;;;22.50;37.10;;;;;;5006918;28;20045;-46
2021/12/10 01:38:36;;;;;;;2.22;1.30;;;22.50;37.10;;;;;;5010409;28;20026;-46
2021/12/10 01:41:07;;;;;;;2.40;1.63;;;22.50;37.10;;;;;;5026435;28;20864;-46
2021/12/10 01:43:35;;;;;;;3.25;1.70;;;22.50;37.10;;;;;;5025633;28;20060;-47
2021/12/10 01:46:07;;;;;;;2.88;1.67;;;22.50;37.10;;;;;;5026862;28;20378;-47
2021/12/10 01:48:38;;;;;;;2.40;1.50;;;22.50;37.00;;;;;;5023979;28;20662;-46
2021/12/10 01:51:06;;;;;;;3.10;1.60;;;22.50;37.00;;;;;;5026482;28;20030;-46
2021/12/10 01:53:34;;;;;;;2.60;1.50;;;22.50;37.10;;;;;;5024677;28;20137;-46
2021/12/10 01:56:05;;;;;;;2.70;1.67;;;22.40;37.00;;;;;;5026755;28;20040;-46
2021/12/10 01:58:32;;;;;;;2.58;1.45;;;22.50;37.20;;;;;;5026136;28;20037;-46
2021/12/10 02:01:14;;;;;;;1.95;1.27;;;22.40;37.00;;;;;;5026434;28;20489;-47
2021/12/10 02:03:41;;;;;;;2.47;1.40;;;22.40;37.00;;;;;;5014422;28;20030;-47
2021/12/10 02:06:07;;;;;;;2.17;1.20;;;22.40;37.10;;;;;;5006157;28;20030;-47
2021/12/10 02:08:37;;;;;;;2.63;1.55;;;22.40;37.70;;;;;;5021388;28;20026;-47
2021/12/10 02:11:05;;;;;;;2.30;1.20;;;22.40;37.70;;;;;;5025870;28;20094;-46
2021/12/10 02:13:31;;;;;;;2.30;1.38;;;22.50;37.20;;;;;;5025847;28;20045;-47
2021/12/10 02:15:57;;;;;;;2.33;1.23;;;22.40;37.20;;;;;;5026007;28;20060;-47
2021/12/10 02:18:23;;;;;;;1.60;1.00;;;22.40;37.40;;;;;;5025786;28;20068;-47
2021/12/10 02:21:02;;;;;;;2.13;1.30;;;22.40;37.40;;;;;;5026178;28;20544;-47
2021/12/10 02:23:37;;;;;;;1.95;1.13;;;22.30;37.50;;;;;;5025901;28;20038;-46
2021/12/10 02:26:06;;;;;;;2.20;1.20;;;22.30;37.30;;;;;;5026193;28;20036;-46
2021/12/10 02:28:33;;;;;;;2.15;1.20;;;22.30;37.30;;;;;;5024285;28;20044;-46
2021/12/10 02:30:59;;;;;;;2.35;1.10;;;22.30;37.30;;;;;;5025646;28;20572;-46
2021/12/10 02:33:26;;;;;;;1.67;1.00;;;22.30;37.30;;;;;;5015898;28;20070;-47
2021/12/10 02:35:52;;;;;;;2.13;1.15;;;22.30;37.20;;;;;;4988370;28;20117;-47
2021/12/10 02:38:19;;;;;;;1.88;1.00;;;22.30;37.20;;;;;;5005629;28;20101;-47
2021/12/10 02:40:48;;;;;;;2.13;1.20;;;22.30;37.30;;;;;;5011848;28;20028;-48
2021/12/10 02:43:15;;;;;;;2.03;1.00;;;22.30;37.30;;;;;;5025012;28;20026;-47
2021/12/10 02:45:43;;;;;;;1.65;1.05;;;22.30;37.30;;;;;;5025554;28;20033;-46
2021/12/10 02:48:09;;;;;;;1.90;0.98;;;22.30;37.30;;;;;;5025324;28;20025;-47
2021/12/10 02:50:35;;;;;;;2.05;1.20;;;22.30;37.30;;;;;;5035724;28;20103;-45
2021/12/10 02:53:03;;;;;;;1.92;1.13;;;22.30;37.30;;;;;;5045082;28;20036;-46
2021/12/10 02:55:29;;;;;;;1.92;1.02;;;22.30;37.30;;;;;;5045035;28;20055;-46
2021/12/10 02:57:58;;;;;;;1.60;0.90;;;22.30;37.30;;;;;;5030214;28;20044;-47
2021/12/10 03:00:27;;;;;;;1.92;1.13;;;22.30;37.40;;;;;;5025449;28;20128;-47
2021/12/10 03:02:53;;;;;;;1.52;0.98;;;22.20;37.20;;;;;;5024626;28;20026;-47
2021/12/10 03:05:20;;;;;;;2.05;1.05;;;22.20;37.20;;;;;;5025352;28;20026;-46
2021/12/10 03:07:45;;;;;;;2.10;1.20;;;22.30;37.30;;;;;;5024912;28;20709;-47
2021/12/10 03:10:16;;;;;;;1.70;1.00;;;22.20;37.30;;;;;;5023533;28;20113;-46
2021/12/10 03:12:43;;;;;;;2.17;1.20;;;22.30;37.30;;;;;;5024340;28;20032;-47
2021/12/10 03:15:10;;;;;;;2.00;1.00;;;22.30;37.30;;;;;;5025230;28;20041;-47
2021/12/10 03:17:35;;;;;;;1.80;0.90;;;22.20;37.30;;;;;;5024593;28;20037;-46
2021/12/10 03:20:07;;;;;;;1.60;0.90;;;22.20;37.30;;;;;;5023350;28;20476;-46
2021/12/10 03:22:34;;;;;;;1.52;0.90;;;22.20;37.20;;;;;;5024237;28;20033;-47
2021/12/10 03:25:00;;;;;;;1.80;1.00;;;22.20;37.20;;;;;;5023827;28;20029;-47
2021/12/10 03:27:26;;;;;;;1.67;0.82;;;22.20;37.20;;;;;;5024445;28;20736;-47
2021/12/10 03:29:52;;;;;;;2.03;1.10;;;22.20;37.20;;;;;;5024451;28;20553;-47
2021/12/10 03:32:25;;;;;;;2.75;1.13;;;22.20;37.20;;;;;;5024242;28;20033;-47
2021/12/10 03:34:51;;;;;;;1.38;0.80;;;22.20;37.30;;;;;;5004988;28;20029;-47
2021/12/10 03:37:19;;;;;;;1.50;0.80;;;22.20;37.40;;;;;;5003249;28;20026;-47
2021/12/10 03:39:46;;;;;;;1.88;0.93;;;22.20;37.40;;;;;;5004569;28;20659;-48
2021/12/10 03:42:13;;;;;;;1.65;0.90;;;22.20;37.50;;;;;;5004607;28;20030;-46
2021/12/10 03:44:39;;;;;;;1.88;0.90;;;22.20;37.50;;;;;;5004690;28;20026;-46
2021/12/10 03:47:07;;;;;;;1.90;1.00;;;22.20;37.50;;;;;;5004727;28;20564;-46
2021/12/10 03:49:33;;;;;;;1.48;0.90;;;22.20;37.50;;;;;;5006662;28;20049;-46
2021/12/10 03:51:59;;;;;;;1.17;0.73;;;22.20;37.40;;;;;;5024363;28;20236;-49
2021/12/10 03:54:26;;;;;;;1.50;0.80;;;22.20;37.50;;;;;;5023992;28;20120;-46
2021/12/10 03:56:53;;;;;;;1.67;0.88;;;22.20;37.50;;;;;;5024085;28;20025;-46
2021/12/10 03:59:21;;;;;;;1.52;0.82;;;22.20;37.50;;;;;;5024518;28;20476;-46
2021/12/10 04:01:51;;;;;;;1.52;0.80;;;22.10;37.50;;;;;;5024090;28;20034;-46
2021/12/10 04:04:41;;;;;;;1.55;0.80;;;22.10;37.50;;;;;;5009845;28;20030;-46
2021/12/10 04:07:12;;;;;;;1.92;0.90;;;22.10;37.40;;;;;;5004134;28;20026;-46
2021/12/10 04:09:38;;;;;;;1.15;0.70;;;22.10;37.30;;;;;;5004539;28;20057;-47
2021/12/10 04:12:04;;;;;;;1.63;0.80;;;22.20;37.30;;;;;;5004127;28;20041;-47
2021/12/10 04:14:30;;;;;;;1.60;0.90;;;22.10;37.30;;;;;;5004519;28;20530;-46
2021/12/10 04:16:57;;;;;;;1.60;0.90;;;22.10;37.20;;;;;;5008199;28;20025;-48
2021/12/10 04:19:30;;;;;;;1.80;0.93;;;22.10;37.20;;;;;;5023461;28;20033;-47
2021/12/10 04:21:57;;;;;;;;;;;22.10;37.20;;;;;;5023256;28;20022;-47
2021/12/10 04:24:24;;;;;;;1.15;0.70;;;22.10;37.20;;;;;;5023589;28;19919;-47
2021/12/10 04:26:52;;;;;;;2.03;0.90;;;22.10;37.20;;;;;;5024039;28;20025;-46
2021/12/10 04:29:20;;;;;;;1.35;0.73;;;22.10;37.30;;;;;;5023851;28;20604;-47
2021/12/10 04:31:48;;;;;;;1.80;0.93;;;22.00;37.20;;;;;;5023617;28;20026;-47
2021/12/10 04:34:14;;;;;;;1.35;0.80;;;22.00;37.20;;;;;;5010063;28;20030;-47
2021/12/10 04:36:40;;;;;;;1.27;0.63;;;22.00;37.20;;;;;;5004373;28;20037;-47
2021/12/10 04:39:06;;;;;;;1.42;0.80;;;22.00;37.20;;;;;;5004340;28;20075;-47
2021/12/10 04:41:32;;;;;;;1.10;0.60;;;22.00;37.20;;;;;;5002958;28;20697;-46
2021/12/10 04:43:58;;;;;;;1.63;0.77;;;22.00;37.20;;;;;;5003719;28;20101;-47
2021/12/10 04:46:24;;;;;;;1.45;0.77;;;22.00;37.20;;;;;;5004168;28;20065;-47
2021/12/10 04:48:52;;;;;;;1.25;0.60;;;22.00;37.20;;;;;;5016722;28;20061;-47
2021/12/10 04:51:21;;;;;;;1.13;0.60;;;22.00;37.20;;;;;;5040129;28;20033;-47
2021/12/10 04:53:48;;;;;;;1.25;0.60;;;22.00;37.20;;;;;;5043013;28;20086;-47
2021/12/10 04:56:15;;;;;;;1.88;0.80;;;22.00;37.20;;;;;;5043336;28;20090;-46
2021/12/10 04:58:41;;;;;;;1.38;0.70;;;22.00;37.20;;;;;;5045515;28;20074;-47
2021/12/10 05:01:07;;;;;;;1.63;0.80;;;22.00;37.20;;;;;;5040292;28;20095;-47
2021/12/10 05:03:32;;;;;;;1.20;0.55;;;22.00;37.20;;;;;;5026429;28;20702;-47
2021/12/10 05:06:03;;;;;;;1.23;0.65;;;22.00;37.20;;;;;;5027251;28;20049;-48
2021/12/10 05:08:30;;;;;;;1.25;0.57;;;22.00;37.20;;;;;;5016122;28;20036;-46
2021/12/10 05:10:56;;;;;;;0.93;0.60;;;21.90;37.30;;;;;;5026726;28;20056;-47
2021/12/10 05:13:22;;;;;;;1.92;0.90;;;21.90;37.30;;;;;;5023229;28;20026;-45
2021/12/10 05:15:57;;;;;;;2.13;0.93;;;21.90;37.30;;;;;;5026453;28;20029;-46
2021/12/10 05:18:24;;;;;;;0.75;0.40;;;21.90;37.30;;;;;;5023406;28;20028;-46
2021/12/10 05:20:51;;;;;;;1.00;0.50;;;21.90;37.40;;;;;;5025908;28;20412;-46
2021/12/10 05:23:19;;;;;;;1.42;0.60;;;21.90;37.50;;;;;;5023215;28;20093;-46
2021/12/10 05:25:44;;;;;;;1.88;0.70;;;21.90;37.90;;;;;;5025273;28;20497;-45
2021/12/10 05:28:11;;;;;;;2.28;0.93;;;21.90;38.10;;;;;;5025693;28;20762;-45
2021/12/10 05:30:37;;;;;;;4.07;1.40;;;22.00;38.30;;;;;;5010811;28;20124;-46
2021/12/10 05:33:04;;;;;;;2.25;1.00;;;22.00;38.60;;;;;;5006575;28;20112;-46
2021/12/10 05:35:31;;;;;;;3.85;0.93;;;22.00;38.60;;;;;;5017078;28;20049;-46
2021/12/10 05:37:58;;;;;;;2.05;0.93;;;22.10;38.70;;;;;;5007788;28;20030;-45
2021/12/10 05:40:24;;;;;;;2.25;1.00;;;22.10;38.70;;;;;;5022367;28;20107;-46
2021/12/10 05:42:51;;;;;;;2.55;0.82;;;22.20;38.80;;;;;;5024963;28;20028;-46
2021/12/10 05:45:20;;;;;;;2.10;0.80;;;22.20;38.70;;;;;;5025028;28;20055;-48
2021/12/10 05:47:47;;;;;;;2.55;1.10;;;22.30;39.30;;;;;;5023991;28;20037;-48
2021/12/10 05:50:15;;;;;;;3.03;0.80;;;22.30;38.70;;;;;;5033290;28;20056;-46
2021/12/10 05:52:41;;;;;;;3.30;0.80;;;22.40;38.50;;;;;;5045379;28;20520;-46
2021/12/10 05:55:08;;;;;;;2.10;0.82;;;22.40;38.40;;;;;;5044617;28;20033;-47
2021/12/10 05:57:34;;;;;;;2.50;1.00;;;22.50;38.40;;;;;;5043718;28;20033;-47
2021/12/10 06:00:00;;;;;;;3.70;0.82;;;22.50;38.30;;;;;;5024463;28;20083;-47
2021/12/10 06:02:26;;;;;;;3.45;0.85;;;22.50;38.20;;;;;;5024037;28;20711;-47
2021/12/10 06:04:52;;;;;;;3.08;0.73;;;22.60;38.10;;;;;;5023958;28;20112;-47
2021/12/10 06:07:18;;;;;;;3.90;1.15;;;22.60;38.00;;;;;;5024653;28;20034;-47
2021/12/10 06:09:44;;;;;;;1.75;0.65;;;22.60;37.90;;;;;;5024105;28;20126;-48
2021/12/10 06:12:10;;;;;;;2.80;0.90;;;22.60;37.90;;;;;;5025123;28;20051;-48
2021/12/10 06:14:36;;;;;;;2.55;0.60;;;22.70;38.10;;;;;;5026173;28;20069;-53
2021/12/10 06:17:02;;;;;;;1.95;0.70;;;22.70;38.10;;;;;;5025923;28;20108;-45
2021/12/10 06:19:28;;;;;;;1.42;0.70;;;22.80;38.20;;;;;;5024561;28;20026;-45
2021/12/10 06:21:53;;;;;;;2.35;0.82;;;22.80;38.20;;;;;;5025371;28;20040;-45
2021/12/10 06:24:20;;;;;;;1.10;0.45;;;22.90;38.20;;;;;;5025554;28;20030;-45
2021/12/10 06:26:46;;;;;;;1.95;0.70;;;22.90;38.00;;;;;;5025908;28;20060;-45
2021/12/10 06:29:12;;;;;;;3.13;0.82;;;23.00;38.00;;;;;;5025870;28;20021;-45
2021/12/10 06:31:38;;;;;;;2.70;0.88;;;23.10;38.10;;;;;;5024770;28;20037;-45
2021/12/10 06:34:04;;;;;;;3.30;0.70;;;23.10;38.00;;;;;;5024953;28;20037;-45
2021/12/10 06:36:30;;;;;;;4.35;0.73;;;23.20;37.90;;;;;;5025752;28;20036;-45
2021/12/10 06:38:57;;;;;;;1.70;0.70;;;23.30;37.80;;;;;;5025280;28;20547;-46
2021/12/10 06:41:23;;;;;;;2.55;0.70;;;23.40;37.70;;;;;;5025580;28;20580;-46
2021/12/10 06:43:49;;;;;;;1.17;0.57;;;23.40;37.50;;;;;;5025058;28;20033;-46
2021/12/10 06:46:16;;;;;;;2.40;1.00;;;23.50;37.50;;;;;;5024924;28;20029;-46
2021/12/10 06:48:42;;;;;;;1.67;0.65;;;23.50;37.40;;;;;;5025425;28;20034;-46
2021/12/10 06:51:26;;;;;;;1.83;0.60;;;23.60;37.30;;;;;;5039435;28;20041;-47
2021/12/10 06:53:52;;;;;;;2.30;0.70;;;23.70;37.30;;;;;;5025142;28;20539;-45
2021/12/10 06:56:19;;;;;;;1.88;0.82;;;23.80;37.20;;;;;;5025351;28;20025;-45
2021/12/10 06:58:45;;;;;;;1.75;0.55;;;23.80;37.00;;;;;;5024872;28;20068;-45
2021/12/10 07:01:18;;;;;;;2.90;0.90;;;23.90;37.00;;;;;;5023273;28;20057;-45
2021/12/10 07:03:45;;;;;;;1.67;0.60;;;23.90;36.90;;;;;;5024128;28;20026;-46
2021/12/10 07:06:12;;;;;;;2.08;0.82;;;23.90;36.80;;;;;;5024619;28;20026;-46
2021/12/10 07:08:41;;;;;;;1.65;0.70;;;24.00;36.70;;;;;;5024907;28;20647;-45
2021/12/10 07:11:10;;;;;;;1.85;0.77;;;24.10;36.80;;;;;;5022952;28;20117;-45
2021/12/10 07:13:38;;;;;;;2.08;0.82;;;24.10;36.70;;;;;;5024213;28;20063;-46
2021/12/10 07:16:05;;;;;;;2.25;0.80;;;24.20;36.60;;;;;;5023893;28;20040;-46
2021/12/10 07:18:31;;;;;;;3.38;0.98;;;24.20;36.50;;;;;;5023147;28;20501;-45
2021/12/10 07:20:57;;;;;;;1.70;0.90;;;24.20;36.50;;;;;;5023224;28;20029;-46
2021/12/10 07:23:23;;;;;;;3.67;0.88;;;24.30;36.30;;;;;;5023104;28;20079;-46
2021/12/10 07:25:50;;;;;;;3.28;1.17;;;24.30;36.00;;;;;;5021395;28;20100;-46
2021/12/10 07:28:17;;;;;;;2.85;1.10;;;24.30;36.60;;;;;;5021441;28;20684;-46
2021/12/10 07:30:43;;;;;;;8.98;2.00;;;24.40;35.80;;;;;;5023833;28;20501;-46
2021/12/10 07:33:09;;;;;;;5.13;1.50;;;24.40;35.70;;;;;;5022703;28;20038;-47
2021/12/10 07:35:37;;;;;;;4.90;1.45;;;24.40;35.60;;;;;;5023554;28;20553;-46
2021/12/10 07:38:04;;;;;;;3.30;1.40;;;24.40;35.60;;;;;;5021869;28;20033;-47
2021/12/10 07:40:31;;;;;;;3.70;1.52;;;24.50;35.90;;;;;;5023478;28;20042;-47
2021/12/10 07:42:58;;;;;;;3.65;1.73;;;24.50;36.00;;;;;;5022782;28;20071;-51
2021/12/10 07:45:25;;;;;;;3.65;1.60;;;24.50;35.80;;;;;;5023641;28;20493;-47
2021/12/10 07:47:56;;;;;;;2.85;1.70;;;24.50;35.70;;;;;;5023796;28;20061;-46
2021/12/10 07:50:27;;;;;;;3.25;1.60;;;24.60;35.70;;;;;;5022947;28;20100;-47
2021/12/10 07:52:56;;;;;;;3.28;1.50;;;24.60;35.60;;;;;;5023613;28;20033;-48
2021/12/10 07:55:28;;;;;;;4.10;1.90;;;24.60;35.50;;;;;;5022505;28;20048;-46
2021/12/10 07:57:55;;;;;;;3.70;2.28;;;24.70;35.30;;;;;;5023886;28;20064;-47
2021/12/10 08:00:24;;;;;;;3.38;1.95;;;24.60;35.10;;;;;;5023640;28;20033;-47
2021/12/10 08:02:50;;;;;;;4.10;1.85;;;24.70;35.10;;;;;;5023152;28;20064;-47
2021/12/10 08:05:17;;;;;;;3.20;1.73;;;24.70;35.10;;;;;;5023358;28;20690;-47
2021/12/10 08:07:43;;;;;;;3.85;1.90;;;24.70;35.10;;;;;;5022547;28;20037;-48
2021/12/10 08:10:11;;;;;;;3.58;1.90;;;24.70;34.80;;;;;;5023243;28;20079;-47
2021/12/10 08:12:37;;;;;;;4.35;2.00;;;24.80;34.90;;;;;;5023313;28;20068;-47
2021/12/10 08:15:05;;;;;;;4.05;2.20;;;24.70;35.00;;;;;;5023486;28;20087;-47
2021/12/10 08:17:30;;;;;;;3.90;1.90;;;24.70;34.90;;;;;;5023577;28;20069;-48
2021/12/10 08:19:56;;;;;;;3.50;2.00;;;24.70;34.80;;;;;;5008237;28;20054;-49
2021/12/10 08:22:22;;;;;;;3.70;2.05;;;24.70;34.90;;;;;;5003716;28;20030;-47
2021/12/10 08:24:48;;;;;;;3.67;2.42;;;24.80;34.90;;;;;;5004365;28;20029;-47
2021/12/10 08:27:14;;;;;;;3.28;1.75;;;24.80;34.80;;;;;;5015707;28;20060;-47
2021/12/10 08:29:44;;;;;;;3.70;2.00;;;24.80;34.80;;;;;;5023811;28;20033;-48
2021/12/10 08:32:13;;;;;;;3.83;2.10;;;24.80;34.70;;;;;;5025301;28;20037;-48
2021/12/10 08:34:40;;;;;;;3.80;2.13;;;24.80;34.60;;;;;;5025998;28;20033;-48
2021/12/10 08:37:06;;;;;;;3.75;2.22;;;24.80;34.80;;;;;;5027191;28;20022;-47
2021/12/10 08:39:32;;;;;;;3.28;1.80;;;24.70;34.60;;;;;;5027736;28;20022;-47
2021/12/10 08:41:58;;;;;;;3.30;1.77;;;24.80;34.70;;;;;;5027619;28;20025;-47
2021/12/10 08:44:28;;;;;;;3.85;2.28;;;24.70;34.70;;;;;;5027417;28;20553;-48
2021/12/10 08:46:54;;;;;;;3.42;1.90;;;24.80;34.70;;;;;;5026258;28;20026;-49
2021/12/10 08:49:20;;;;;;;3.63;2.08;;;24.80;34.60;;;;;;5027019;28;20041;-48
2021/12/10 08:51:50;;;;;;;3.03;1.98;;;24.80;34.60;;;;;;5042029;28;20064;-47
2021/12/10 08:54:18;;;;;;;3.97;2.10;;;24.80;34.50;;;;;;5027139;28;20108;-47
2021/12/10 08:56:46;;;;;;;3.42;1.65;;;24.80;34.60;;;;;;5027118;28;20112;-47
2021/12/10 08:59:13;;;;;;;3.50;1.95;;;24.80;34.70;;;;;;5027500;28;20033;-47
2021/12/10 09:01:45;;;;;;;3.67;1.80;;;24.80;34.60;;;;;;5026789;28;20041;-47
2021/12/10 09:04:12;;;;;;;;;;;24.80;34.60;;;;;;5027486;28;20712;-47
2021/12/10 09:06:41;;;;;;;2.53;1.40;;;24.80;34.70;;;;;;5026876;28;19916;-49
2021/12/10 09:09:10;;;;;;;3.28;1.65;;;24.70;34.70;;;;;;5027021;28;20049;-48
2021/12/10 09:11:38;;;;;;;3.60;2.17;;;24.70;34.70;;;;;;5026141;28;20026;-47
2021/12/10 09:14:07;;;;;;;3.17;1.45;;;24.70;34.80;;;;;;5026345;28;20033;-48
2021/12/10 09:16:33;;;;;;;2.60;1.55;;;24.70;34.80;;;;;;5026396;28;20034;-47
2021/12/10 09:19:03;;;;;;;3.95;1.75;;;24.70;34.80;;;;;;5027036;28;20503;-47
2021/12/10 09:21:30;;;;;;;2.88;1.58;;;24.70;34.80;;;;;;5026674;28;20024;-47
2021/12/10 09:24:01;;;;;;;3.33;1.83;;;24.70;34.80;;;;;;5026150;28;20108;-47
2021/12/10 09:26:27;;;;;;;3.17;1.90;;;24.70;35.10;;;;;;5025413;28;20386;-47
2021/12/10 09:28:56;;;;;;;3.30;1.90;;;24.70;34.70;;;;;;5026513;28;20614;-48
2021/12/10 09:31:24;;;;;;;3.58;1.88;;;24.70;34.70;;;;;;5026347;28;20041;-47
2021/12/10 09:33:56;;;;;;;3.40;1.80;;;24.70;34.70;;;;;;5026043;28;20068;-46
2021/12/10 09:36:22;;;;;;;4.50;2.60;;;24.70;34.70;;;;;;5026695;28;20041;-46
2021/12/10 09:38:49;;;;;;;3.00;1.75;;;24.70;34.60;;;;;;5026701;28;20107;-48
2021/12/10 09:41:15;;;;;;;3.67;2.00;;;24.70;34.60;;;;;;5025885;28;20022;-47
2021/12/10 09:43:42;;;;;;;3.70;1.90;;;24.70;34.70;;;;;;5024662;28;20029;-47
2021/12/10 09:46:09;;;;;;;3.55;1.98;;;24.70;34.60;;;;;;5025040;28;20037;-47
2021/12/10 09:48:36;;;;;;;4.00;2.22;;;24.70;34.60;;;;;;5008149;28;20045;-47
2021/12/10 09:51:11;;;;;;;3.78;2.20;;;24.70;34.60;;;;;;5040750;28;20071;-46
2021/12/10 09:53:46;;;;;;;3.00;1.90;;;24.70;34.60;;;;;;5045990;28;20440;-47
2021/12/10 09:56:14;;;;;;;3.90;2.08;;;24.70;34.60;;;;;;5042119;28;20553;-47
2021/12/10 09:58:41;;;;;;;3.85;2.15;;;24.70;34.60;;;;;;5026221;28;20465;-49
2021/12/10 10:01:09;;;;;;;3.33;1.80;;;24.70;34.60;;;;;;5026025;28;20129;-46
2021/12/10 10:03:38;;;;;;;3.92;2.47;;;24.70;34.50;;;;;;5026042;28;20498;-47
2021/12/10 10:06:05;;;;;;;3.40;1.98;;;24.70;34.60;;;;;;5026106;28;20033;-46
2021/12/10 10:08:32;;;;;;;2.97;1.77;;;24.70;34.50;;;;;;5025706;28;20059;-47
2021/12/10 10:11:06;;;;;;;3.17;1.83;;;24.70;34.60;;;;;;5024041;28;20045;-47
2021/12/10 10:13:35;;;;;;;3.33;1.80;;;24.70;34.50;;;;;;5025665;28;20033;-47
2021/12/10 10:16:02;;;;;;;3.03;1.80;;;24.70;34.50;;;;;;5025820;28;20041;-48
2021/12/10 10:18:31;;;;;;;2.97;1.77;;;24.70;34.50;;;;;;5024466;28;20512;-46
2021/12/10 10:21:00;;;;;;;3.28;1.95;;;24.70;34.50;;;;;;5005879;28;20033;-46
2021/12/10 10:23:28;;;;;;;3.13;1.77;;;24.70;34.60;;;;;;5005651;28;20173;-46
2021/12/10 10:25:58;;;;;;;4.10;2.28;;;24.70;34.50;;;;;;5007070;28;20052;-47
2021/12/10 10:28:23;;;;;;;3.40;2.13;;;24.70;34.60;;;;;;5025925;28;20033;-47
2021/12/10 10:31:00;;;;;;;3.58;2.20;;;24.70;34.60;;;;;;5025475;28;20029;-47
2021/12/10 10:33:28;;;;;;;3.63;1.85;;;24.80;34.50;;;;;;5025165;28;20030;-47
2021/12/10 10:35:57;;;;;;;3.90;2.10;;;24.70;34.50;;;;;;5025624;28;20196;-47
2021/12/10 10:38:23;;;;;;;3.40;2.10;;;24.70;34.50;;;;;;5025187;28;20072;-47
2021/12/10 10:40:55;;;;;;;3.50;2.20;;;24.70;34.50;;;;;;5025501;28;20436;-47
2021/12/10 10:43:23;;;;;;;3.17;2.08;;;24.70;34.40;;;;;;5024632;28;20595;-46
2021/12/10 10:45:49;;;;;;;3.30;2.10;;;24.70;34.50;;;;;;5025400;28;20036;-47
2021/12/10 10:48:17;;;;;;;3.35;1.90;;;24.70;34.50;;;;;;5024902;28;20124;-47
2021/12/10 10:50:58;;;;;;;3.70;2.13;;;24.80;34.40;;;;;;5029322;28;20044;-47
2021/12/10 10:53:35;;;;;;;4.57;2.40;;;24.80;34.40;;;;;;5044208;28;20032;-47
2021/12/10 10:56:08;;;;;;;3.58;2.13;;;24.80;34.30;;;;;;5042101;28;20029;-47
2021/12/10 10:58:43;;;;;;;3.60;2.28;;;24.80;34.50;;;;;;5024823;28;20099;-47
2021/12/10 11:01:21;;;;;;;3.50;2.05;;;24.80;34.50;;;;;;5025102;28;20037;-47
2021/12/10 11:04:09;;;;;;;4.00;2.45;;;24.80;34.60;;;;;;5024435;28;20140;-47
2021/12/10 11:06:41;;;;;;;3.78;2.42;;;24.70;34.50;;;;;;5024957;28;20030;-47
2021/12/10 11:09:22;;;;;;;4.15;2.13;;;24.70;34.50;;;;;;5024645;28;20022;-47
2021/12/10 11:11:58;;;;;;;4.25;2.47;;;24.70;34.50;;;;;;5024129;28;20068;-49
2021/12/10 11:14:28;;;;;;;3.80;2.47;;;24.70;34.50;;;;;;5024395;28;20060;-46
2021/12/10 11:17:01;;;;;;;4.30;2.30;;;24.70;34.50;;;;;;5023330;28;20533;-46
2021/12/10 11:19:30;;;;;;;3.38;2.47;;;24.70;34.40;;;;;;5015297;28;20038;-47
2021/12/10 11:22:00;;;;;;;4.13;2.65;;;24.70;34.50;;;;;;5024496;28;20136;-48
2021/12/10 11:24:37;;;;;;;4.22;2.50;;;24.70;34.50;;;;;;5024332;28;20565;-49
2021/12/10 11:27:08;;;;;;;3.80;2.60;;;24.70;34.60;;;;;;5024575;28;20040;-47
2021/12/10 11:29:35;;;;;;;4.10;2.80;;;24.60;34.40;;;;;;5024226;28;20021;-46
2021/12/10 11:32:07;;;;;;;3.85;2.75;;;24.60;34.50;;;;;;5023356;28;20018;-47
2021/12/10 11:35:05;;;;;;;4.30;2.80;;;24.60;34.50;;;;;;5024428;28;20087;-47
2021/12/10 11:37:51;;;;;;;3.55;2.38;;;24.60;34.50;;;;;;5029676;28;20367;-47
2021/12/10 11:40:40;;;;;;;4.25;2.67;;;24.60;34.50;;;;;;5022878;28;20071;-47
2021/12/10 11:48:57;;;;;;;5.70;3.05;;;24.60;34.60;;;;;;5022229;28;20556;-47
2021/12/10 11:51:32;;;;;;;4.35;3.20;;;24.50;34.50;;;;;;5019107;28;20044;-47
2021/12/10 11:54:18;;;;;;;6.13;2.80;;;24.50;34.60;;;;;;5024068;28;20163;-47
2021/12/10 11:56:52;;;;;;;5.53;3.33;;;24.50;34.60;;;;;;5025891;28;20068;-47
2021/12/10 11:59:21;;;;;;;5.72;3.70;;;24.50;34.60;;;;;;5016406;28;20511;-47
2021/12/10 12:02:02;;;;;;;5.45;3.55;;;24.50;34.80;;;;;;5003559;28;20060;-47
2021/12/10 12:04:39;;;;;;;6.18;3.45;;;24.50;34.80;;;;;;5019173;28;20494;-45
2021/12/10 12:07:23;;;;;;;5.25;3.42;;;24.50;34.80;;;;;;5022986;28;20032;-46
2021/12/10 12:09:56;;;;;;;5.57;3.55;;;24.50;34.90;;;;;;5023610;28;20429;-47
2021/12/10 12:12:29;;;;;;;5.18;3.40;;;24.40;34.90;;;;;;5023625;28;20041;-45
2021/12/10 12:15:12;;;;;;;4.68;3.55;;;24.50;34.90;;;;;;5023829;28;20025;-48
2021/12/10 12:17:57;;;;;;;5.07;2.92;;;24.50;35.00;;;;;;5012896;28;20044;-47
2021/12/10 12:20:54;;;;;;;7.18;3.97;;;24.50;35.00;;;;;;5018540;28;20453;-48
2021/12/10 12:26:28;;;;;;;6.13;3.45;;;24.50;35.10;;;;;;5022436;28;20032;-48
2021/12/10 12:29:15;;;;;;;6.10;3.95;;;24.40;35.00;;;;;;5022268;28;20112;-46
2021/12/10 12:31:40;;;;;;;5.72;3.63;;;24.50;35.10;;;;;;5023400;28;20096;-46
2021/12/10 12:34:27;;;;;;;5.35;3.45;;;24.50;35.20;;;;;;5017711;28;20808;-47
2021/12/10 12:37:01;;;;;;;4.95;3.80;;;24.50;35.20;;;;;;5019113;28;20037;-47
2021/12/10 12:40:08;;;;;;;6.35;3.72;;;24.50;35.10;;;;;;5004015;28;20115;-46
2021/12/10 12:42:38;;;;;;;6.65;3.85;;;24.50;35.20;;;;;;5019591;28;20069;-47
2021/12/10 12:45:10;;;;;;;5.18;3.70;;;24.50;35.10;;;;;;5010850;28;20045;-46
2021/12/10 12:47:39;;;;;;;6.13;3.55;;;24.50;35.20;;;;;;5020282;28;20116;-47
2021/12/10 12:50:07;;;;;;;5.78;3.42;;;24.50;35.20;;;;;;5023671;28;20523;-45
2021/12/10 12:53:00;;;;;;;5.50;3.88;;;24.50;35.20;;;;;;5019169;28;20136;-47
2021/12/10 12:55:37;;;;;;;4.85;3.67;;;24.50;35.10;;;;;;5022146;28;20101;-47
2021/12/10 12:58:12;;;;;;;6.30;3.70;;;24.50;35.00;;;;;;5022818;28;20116;-47
2021/12/10 13:00:46;;;;;;;6.78;4.07;;;24.50;35.50;;;;;;5022830;28;20042;-46
2021/12/10 13:03:33;;;;;;;5.32;4.07;;;24.50;35.00;;;;;;5022061;28;20033;-47
2021/12/10 13:06:14;;;;;;;7.07;3.70;;;24.50;35.10;;;;;;5026918;28;20029;-49
2021/12/10 13:08:43;;;;;;;5.57;3.90;;;24.50;35.20;;;;;;5032124;28;20032;-48
2021/12/10 13:11:19;;;;;;;5.38;3.72;;;24.50;35.20;;;;;;5030270;28;20025;-48
2021/12/10 13:14:17;;;;;;;7.25;4.22;;;24.50;35.20;;;;;;5028983;28;20048;-48
2021/12/10 13:16:50;;;;;;;7.28;3.88;;;24.50;35.20;;;;;;5029762;28;20025;-47
2021/12/10 13:19:17;;;;;;;;;;;24.50;35.10;;;;;;5024232;28;20022;-48
2021/12/10 13:21:46;;;;;;;4.85;3.38;;;24.50;35.20;;;;;;5027441;28;19916;-47
2021/12/10 13:24:13;;;;;;;5.68;3.75;;;24.50;35.20;;;;;;5025567;28;20482;-52